Time;durP1;ratioP1;P1;durP2;ratioP2;P2;SDS_P1;SDS_P2;PMS_P1;PMS_P2;Temp;Humidity;BMP_temperature;BMP_pressure;BME280_temperature;BME280_humidity;BME280_pressure;Samples;Min_cycle;Max_cycle;Signal;HPM_P1;HPM_P2
2021/08/16 00:02:05;;;;;;;4.10;1.63;;;;;23.40;100769.00;;;;5069721;28;20591;-77
2021/08/16 00:04:32;;;;;;;4.97;1.33;;;;;23.40;100773.00;;;;5070040;28;20206;-78
2021/08/16 00:07:00;;;;;;;3.72;1.35;;;;;23.40;100770.00;;;;5069658;28;20219;-77
2021/08/16 00:09:27;;;;;;;7.70;1.48;;;;;23.40;100767.00;;;;5069092;28;20580;-77
2021/08/16 00:11:54;;;;;;;9.05;1.65;;;;;23.40;100767.00;;;;5069048;28;20199;-77
2021/08/16 00:14:23;;;;;;;6.75;2.28;;;;;23.40;100767.00;;;;5068342;28;20580;-77
2021/08/16 00:16:50;;;;;;;10.45;1.55;;;;;23.40;100761.00;;;;5054019;28;20207;-77
2021/08/16 00:19:17;;;;;;;8.50;1.92;;;;;23.30;100754.00;;;;5048936;28;20661;-77
2021/08/16 00:21:45;;;;;;;6.05;1.33;;;;;23.30;100757.00;;;;5049424;28;20271;-77
2021/08/16 00:24:12;;;;;;;5.63;1.95;;;;;23.30;100760.00;;;;5048695;28;20188;-77
2021/08/16 00:26:39;;;;;;;7.05;1.55;;;;;23.30;100751.00;;;;5048818;28;20196;-77
2021/08/16 00:29:06;;;;;;;6.28;1.70;;;;;23.30;100758.00;;;;5049324;28;20214;-77
2021/08/16 00:31:35;;;;;;;6.47;1.55;;;;;23.30;100765.00;;;;5049493;28;20207;-77
2021/08/16 00:34:02;;;;;;;7.38;1.40;;;;;23.30;100765.00;;;;5049507;28;20230;-75
2021/08/16 00:36:29;;;;;;;7.68;1.75;;;;;23.20;100765.00;;;;5048736;28;20231;-74
2021/08/16 00:38:57;;;;;;;3.85;0.98;;;;;23.20;100772.00;;;;5049237;28;20216;-75
2021/08/16 00:41:24;;;;;;;5.53;1.58;;;;;23.20;100766.00;;;;5048406;28;20420;-74
2021/08/16 00:43:52;;;;;;;3.58;1.30;;;;;23.20;100766.00;;;;5048639;28;20203;-75
2021/08/16 00:46:20;;;;;;;9.75;1.77;;;;;23.20;100761.00;;;;5048147;28;20584;-75
2021/08/16 00:48:49;;;;;;;5.85;1.40;;;;;23.20;100766.00;;;;5048992;28;20289;-75
2021/08/16 00:51:16;;;;;;;6.05;1.38;;;;;23.20;100765.00;;;;5049147;28;20207;-75
2021/08/16 00:53:45;;;;;;;7.60;1.55;;;;;23.20;100761.00;;;;5048378;28;20200;-75
2021/08/16 00:56:12;;;;;;;9.40;1.80;;;;;23.20;100768.00;;;;5048425;28;20199;-75
2021/08/16 00:58:40;;;;;;;4.55;1.42;;;;;23.20;100761.00;;;;5048746;28;20559;-75
2021/08/16 01:01:08;;;;;;;5.53;1.42;;;;;23.20;100762.00;;;;5048359;28;20302;-76
2021/08/16 01:03:35;;;;;;;5.47;1.40;;;;;23.20;100761.00;;;;5049240;28;20211;-75
2021/08/16 01:06:05;;;;;;;6.70;1.80;;;;;23.10;100759.00;;;;5049586;28;20203;-75
2021/08/16 01:08:32;;;;;;;9.05;1.90;;;;;23.10;100767.00;;;;5068747;28;20222;-76
2021/08/16 01:11:00;;;;;;;5.70;1.40;;;;;23.20;100762.00;;;;5068587;28;20206;-75
2021/08/16 01:13:27;;;;;;;5.88;1.80;;;;;23.20;100767.00;;;;5068312;28;20195;-75
2021/08/16 01:15:56;;;;;;;6.50;1.23;;;;;23.20;100769.00;;;;5060310;28;20195;-75
2021/08/16 01:18:24;;;;;;;7.00;1.98;;;;;23.20;100761.00;;;;5048106;28;20200;-75
2021/08/16 01:20:51;;;;;;;5.53;1.88;;;;;23.20;100766.00;;;;5048823;28;20222;-75
2021/08/16 01:23:20;;;;;;;5.82;1.17;;;;;23.20;100757.00;;;;5048780;28;20210;-75
2021/08/16 01:25:48;;;;;;;6.18;1.42;;;;;23.20;100763.00;;;;5049823;28;20208;-75
2021/08/16 01:28:19;;;;;;;6.32;1.40;;;;;23.20;100756.00;;;;5052094;28;20650;-75
2021/08/16 01:30:48;;;;;;;11.65;1.88;;;;;23.20;100763.00;;;;5052563;28;20207;-75
2021/08/16 01:33:15;;;;;;;6.45;1.00;;;;;23.20;100760.00;;;;5052616;28;20622;-76
2021/08/16 01:35:42;;;;;;;8.25;1.73;;;;;23.20;100763.00;;;;5052259;28;20231;-75
2021/08/16 01:38:09;;;;;;;5.85;1.52;;;;;23.20;100760.00;;;;5052162;28;20223;-75
2021/08/16 01:40:36;;;;;;;8.07;2.13;;;;;23.20;100765.00;;;;5052625;28;20211;-75
2021/08/16 01:43:04;;;;;;;4.65;1.33;;;;;23.20;100758.00;;;;5052256;28;20204;-75
2021/08/16 01:45:33;;;;;;;5.57;1.60;;;;;23.20;100757.00;;;;5051616;28;20207;-75
2021/08/16 01:48:00;;;;;;;7.85;1.30;;;;;23.20;100754.00;;;;5052060;28;20230;-75
2021/08/16 01:50:27;;;;;;;6.13;1.73;;;;;23.20;100755.00;;;;5051975;28;20205;-75
2021/08/16 01:52:54;;;;;;;7.90;1.60;;;;;23.20;100745.00;;;;5051772;28;20211;-75
2021/08/16 01:55:22;;;;;;;4.47;1.23;;;;;23.20;100748.00;;;;5051378;28;20196;-75
2021/08/16 01:57:49;;;;;;;4.65;1.52;;;;;23.20;100743.00;;;;5051916;28;20207;-75
2021/08/16 02:00:17;;;;;;;5.07;1.55;;;;;23.20;100743.00;;;;5051671;28;20241;-75
2021/08/16 02:02:45;;;;;;;4.07;1.10;;;;;23.20;100737.00;;;;5051638;28;20195;-76
2021/08/16 02:05:13;;;;;;;4.22;1.23;;;;;23.20;100737.00;;;;5051993;28;20202;-76
2021/08/16 02:07:40;;;;;;;5.22;1.60;;;;;23.20;100745.00;;;;5051811;28;20219;-75
2021/08/16 02:10:09;;;;;;;4.10;1.05;;;;;23.20;100741.00;;;;5051228;28;20207;-75
2021/08/16 02:12:36;;;;;;;5.97;1.67;;;;;23.20;100737.00;;;;5051821;28;20576;-75
2021/08/16 02:15:04;;;;;;;5.15;1.60;;;;;23.20;100742.00;;;;5052325;28;20207;-75
2021/08/16 02:17:31;;;;;;;9.88;2.00;;;;;23.20;100739.00;;;;5051575;28;20196;-75
2021/08/16 02:20:00;;;;;;;3.97;1.15;;;;;23.20;100736.00;;;;5051683;28;20678;-75
2021/08/16 02:22:27;;;;;;;6.47;1.77;;;;;23.20;100734.00;;;;5050734;28;20207;-76
2021/08/16 02:24:55;;;;;;;11.68;1.55;;;;;23.20;100740.00;;;;5051777;28;20195;-76
2021/08/16 02:27:22;;;;;;;7.65;1.38;;;;;23.20;100739.00;;;;5050630;28;20883;-76
2021/08/16 02:29:49;;;;;;;10.65;1.80;;;;;23.30;100736.00;;;;5051669;28;20214;-76
2021/08/16 02:32:16;;;;;;;8.95;1.45;;;;;23.30;100744.00;;;;5060788;28;20214;-76
2021/08/16 02:34:44;;;;;;;7.70;1.48;;;;;23.30;100741.00;;;;5071158;28;20206;-75
2021/08/16 02:37:12;;;;;;;7.45;1.25;;;;;23.30;100738.00;;;;5070742;28;20211;-76
2021/08/16 02:39:40;;;;;;;4.13;1.23;;;;;23.30;100739.00;;;;5071268;28;20226;-75
2021/08/16 02:42:08;;;;;;;7.70;1.60;;;;;23.30;100738.00;;;;5070786;28;20207;-75
2021/08/16 02:44:35;;;;;;;10.60;1.75;;;;;23.30;100737.00;;;;5071224;28;20206;-75
2021/08/16 02:47:02;;;;;;;5.60;1.35;;;;;23.30;100744.00;;;;5070674;28;20199;-75
2021/08/16 02:49:29;;;;;;;9.02;1.42;;;;;23.40;100739.00;;;;5069600;28;20238;-75
2021/08/16 02:51:57;;;;;;;5.63;1.20;;;;;23.40;100742.00;;;;5067222;28;20203;-76
2021/08/16 02:54:25;;;;;;;5.90;1.33;;;;;23.40;100741.00;;;;5070228;28;20222;-75
2021/08/16 02:56:52;;;;;;;6.95;1.83;;;;;23.40;100733.00;;;;5070928;28;20256;-76
2021/08/16 02:59:20;;;;;;;5.60;1.60;;;;;23.40;100730.00;;;;5070678;28;20664;-76
2021/08/16 03:01:47;;;;;;;3.30;1.20;;;;;23.40;100731.00;;;;5070496;28;20203;-76
2021/08/16 03:04:14;;;;;;;4.13;1.50;;;;;23.50;100726.00;;;;5070641;28;20203;-75
2021/08/16 03:06:41;;;;;;;4.75;1.58;;;;;23.50;100721.00;;;;5056259;28;20215;-76
2021/08/16 03:09:08;;;;;;;5.38;1.83;;;;;23.50;100731.00;;;;5050325;28;20235;-75
2021/08/16 03:11:37;;;;;;;3.13;1.30;;;;;23.50;100734.00;;;;5050596;28;20225;-76
2021/08/16 03:14:04;;;;;;;4.55;1.60;;;;;23.50;100721.00;;;;5050223;28;20210;-76
2021/08/16 03:16:31;;;;;;;5.28;1.27;;;;;23.40;100724.00;;;;5050621;28;20200;-75
2021/08/16 03:18:59;;;;;;;5.18;1.13;;;;;23.40;100722.00;;;;5060802;28;20217;-76
2021/08/16 03:21:26;;;;;;;3.92;1.10;;;;;23.40;100723.00;;;;5069994;28;20197;-75
2021/08/16 03:23:53;;;;;;;4.85;1.23;;;;;23.40;100720.00;;;;5055092;28;20204;-75
2021/08/16 03:26:20;;;;;;;7.57;1.80;;;;;23.40;100721.00;;;;5049838;28;20192;-75
2021/08/16 03:28:49;;;;;;;6.80;1.42;;;;;23.40;100724.00;;;;5049833;28;20254;-75
2021/08/16 03:31:16;;;;;;;6.05;1.42;;;;;23.40;100719.00;;;;5049971;28;20603;-75
2021/08/16 03:33:43;;;;;;;4.60;1.30;;;;;23.40;100725.00;;;;5049890;28;20258;-76
2021/08/16 03:36:11;;;;;;;5.50;1.40;;;;;23.40;100722.00;;;;5050288;28;20224;-76
2021/08/16 03:38:39;;;;;;;3.55;1.27;;;;;23.40;100718.00;;;;5050133;28;20227;-76
2021/08/16 03:41:06;;;;;;;5.45;1.52;;;;;23.40;100719.00;;;;5050091;28;20292;-76
2021/08/16 03:43:33;;;;;;;10.52;1.92;;;;;23.40;100719.00;;;;5049801;28;20210;-76
2021/08/16 03:46:03;;;;;;;4.80;1.80;;;;;23.40;100710.00;;;;5049751;28;20723;-76
2021/08/16 03:48:30;;;;;;;3.42;1.05;;;;;23.40;100713.00;;;;5049095;28;20235;-77
2021/08/16 03:50:58;;;;;;;5.97;1.33;;;;;23.40;100718.00;;;;5050275;28;20199;-77
2021/08/16 03:53:25;;;;;;;7.07;1.23;;;;;23.40;100711.00;;;;5048723;28;20219;-76
2021/08/16 03:55:52;;;;;;;6.32;1.60;;;;;23.40;100718.00;;;;5049878;28;20206;-76
2021/08/16 03:58:19;;;;;;;5.53;1.30;;;;;23.40;100718.00;;;;5050060;28;20222;-76
2021/08/16 04:00:47;;;;;;;2.83;1.38;;;;;23.40;100711.00;;;;5049796;28;20231;-76
2021/08/16 04:03:15;;;;;;;3.78;1.30;;;;;23.30;100714.00;;;;5049900;28;20218;-76
2021/08/16 04:05:43;;;;;;;3.05;1.02;;;;;23.40;100715.00;;;;5049199;28;20207;-76
2021/08/16 04:08:10;;;;;;;6.53;1.33;;;;;23.40;100711.00;;;;5049236;28;20201;-77
2021/08/16 04:10:37;;;;;;;4.25;1.20;;;;;23.30;100706.00;;;;5049232;28;20673;-76
2021/08/16 04:13:04;;;;;;;8.15;1.52;;;;;23.30;100707.00;;;;5049081;28;20685;-76
2021/08/16 04:15:32;;;;;;;5.75;0.98;;;;;23.30;100703.00;;;;5049616;28;20245;-76
2021/08/16 04:17:59;;;;;;;5.13;1.50;;;;;23.30;100701.00;;;;5049397;28;20207;-76
2021/08/16 04:20:28;;;;;;;4.70;1.05;;;;;23.30;100709.00;;;;5048353;28;20200;-76
2021/08/16 04:22:55;;;;;;;4.88;1.10;;;;;23.30;100709.00;;;;5049539;28;20200;-77
2021/08/16 04:25:23;;;;;;;3.97;1.05;;;;;23.30;100708.00;;;;5048718;28;20215;-76
2021/08/16 04:27:50;;;;;;;3.08;1.38;;;;;23.30;100703.00;;;;5049270;28;20653;-75
2021/08/16 04:30:18;;;;;;;5.75;1.77;;;;;23.30;100698.00;;;;5051100;28;20238;-75
2021/08/16 04:32:45;;;;;;;4.57;1.40;;;;;23.30;100704.00;;;;5069132;28;20575;-76
2021/08/16 04:35:13;;;;;;;2.72;1.20;;;;;23.30;100701.00;;;;5069128;28;20230;-76
2021/08/16 04:37:42;;;;;;;3.10;0.90;;;;;23.20;100695.00;;;;5068392;28;20202;-75
2021/08/16 04:40:10;;;;;;;5.25;1.75;;;;;23.20;100699.00;;;;5069108;28;20583;-75
2021/08/16 04:42:38;;;;;;;4.47;1.52;;;;;23.20;100691.00;;;;5069071;28;20688;-77
2021/08/16 04:45:07;;;;;;;4.38;1.40;;;;;23.30;100691.00;;;;5068735;28;20195;-75
2021/08/16 04:47:34;;;;;;;7.95;1.98;;;;;23.20;100695.00;;;;5068100;28;20211;-76
2021/08/16 04:50:01;;;;;;;4.53;1.60;;;;;23.20;100699.00;;;;5068982;28;20249;-76
2021/08/16 04:52:29;;;;;;;4.95;1.00;;;;;23.20;100696.00;;;;5068258;28;20195;-76
2021/08/16 04:54:57;;;;;;;4.35;1.60;;;;;23.20;100698.00;;;;5069262;28;20191;-75
2021/08/16 04:57:32;;;;;;;6.20;1.50;;;;;23.10;100691.00;;;;5068120;28;20199;-75
2021/08/16 04:59:59;;;;;;;4.93;1.40;;;;;23.20;100699.00;;;;5071124;28;20193;-75
2021/08/16 05:02:27;;;;;;;5.75;1.75;;;;;23.20;100685.00;;;;5072120;28;20240;-76
2021/08/16 05:04:56;;;;;;;2.42;1.25;;;;;23.20;100691.00;;;;5072321;28;20582;-75
2021/08/16 05:07:23;;;;;;;2.20;1.05;;;;;23.20;100693.00;;;;5072681;28;20738;-76
2021/08/16 05:09:51;;;;;;;4.55;1.92;;;;;23.20;100686.00;;;;5073102;28;20234;-75
2021/08/16 05:12:20;;;;;;;4.22;1.73;;;;;23.20;100686.00;;;;5072913;28;20203;-75
2021/08/16 05:14:47;;;;;;;5.75;1.80;;;;;23.10;100685.00;;;;5057415;28;20207;-76
2021/08/16 05:17:15;;;;;;;2.60;1.60;;;;;23.10;100679.00;;;;5052690;28;20210;-76
2021/08/16 05:19:42;;;;;;;7.20;1.40;;;;;23.10;100676.00;;;;5052505;28;20673;-76
2021/08/16 05:22:11;;;;;;;3.55;1.77;;;;;23.10;100673.00;;;;5052396;28;20688;-75
2021/08/16 05:24:38;;;;;;;5.05;1.90;;;;;23.10;100683.00;;;;5052372;28;20619;-76
2021/08/16 05:27:06;;;;;;;5.72;2.35;;;;;23.20;100681.00;;;;5052127;28;20200;-76
2021/08/16 05:29:34;;;;;;;5.50;1.52;;;;;23.10;100676.00;;;;5052364;28;20231;-76
2021/08/16 05:32:02;;;;;;;3.20;1.38;;;;;23.10;100671.00;;;;5051987;28;20799;-76
2021/08/16 05:34:29;;;;;;;6.85;2.10;;;;;23.10;100667.00;;;;5051790;28;20204;-77
2021/08/16 05:36:57;;;;;;;3.30;1.42;;;;;23.10;100673.00;;;;5052610;28;20239;-76
2021/08/16 05:39:24;;;;;;;5.72;1.88;;;;;23.10;100668.00;;;;5052764;28;20486;-77
2021/08/16 05:41:51;;;;;;;3.55;1.55;;;;;23.10;100670.00;;;;5052468;28;20199;-78
2021/08/16 05:44:18;;;;;;;5.13;1.75;;;;;23.10;100670.00;;;;5051966;28;20202;-77
2021/08/16 05:46:47;;;;;;;4.25;1.73;;;;;23.10;100681.00;;;;5051913;28;20200;-76
2021/08/16 05:49:14;;;;;;;5.68;1.90;;;;;23.10;100681.00;;;;5051759;28;20219;-77
2021/08/16 05:51:41;;;;;;;4.25;1.60;;;;;23.00;100686.00;;;;5064481;28;20617;-77
2021/08/16 05:54:09;;;;;;;4.85;1.60;;;;;23.00;100688.00;;;;5071754;28;20202;-77
2021/08/16 05:56:36;;;;;;;7.15;2.22;;;;;23.00;100683.00;;;;5058367;28;20199;-77
2021/08/16 05:59:03;;;;;;;6.10;2.00;;;;;23.00;100720.00;;;;5051378;28;20199;-76
2021/08/16 06:01:33;;;;;;;2.97;1.73;;;;;22.90;100719.00;;;;5051850;28;20208;-77
2021/08/16 06:04:02;;;;;;;4.97;1.95;;;;;22.90;100717.00;;;;5052070;28;20200;-78
2021/08/16 06:06:29;;;;;;;6.00;1.85;;;;;22.90;100715.00;;;;5052199;28;20211;-77
2021/08/16 06:08:56;;;;;;;2.88;1.30;;;;;22.90;100720.00;;;;5051841;28;20222;-78
2021/08/16 06:11:24;;;;;;;1.70;1.10;;;;;22.90;100716.00;;;;5050326;28;20629;-78
2021/08/16 06:13:51;;;;;;;1.23;0.90;;;;;22.90;100718.00;;;;5052188;28;20653;-78
2021/08/16 06:16:18;;;;;;;2.40;1.20;;;;;22.90;100718.00;;;;5051763;28;20211;-77
2021/08/16 06:18:46;;;;;;;4.00;1.02;;;;;22.90;100721.00;;;;5051074;28;20460;-77
2021/08/16 06:21:14;;;;;;;1.00;0.68;;;;;22.90;100721.00;;;;5051244;28;20211;-78
2021/08/16 06:23:42;;;;;;;1.42;0.77;;;;;22.90;100717.00;;;;5051474;28;20214;-78
2021/08/16 06:26:09;;;;;;;2.15;0.75;;;;;22.90;100714.00;;;;5051387;28;20195;-77
2021/08/16 06:28:36;;;;;;;1.73;0.77;;;;;22.90;100713.00;;;;5051632;28;20199;-77
2021/08/16 06:31:04;;;;;;;0.85;0.47;;;;;22.90;100709.00;;;;5067300;28;20202;-77
2021/08/16 06:33:31;;;;;;;1.27;0.63;;;;;22.90;100721.00;;;;5071153;28;20191;-77
2021/08/16 06:35:58;;;;;;;1.52;0.93;;;;;22.90;100723.00;;;;5071237;28;20242;-78
2021/08/16 06:38:27;;;;;;;3.20;0.60;;;;;22.90;100726.00;;;;5070782;28;20586;-78
2021/08/16 06:40:56;;;;;;;1.42;0.88;;;;;22.90;100733.00;;;;5071188;28;20199;-78
2021/08/16 06:43:26;;;;;;;1.75;0.77;;;;;22.90;100740.00;;;;5070342;28;20214;-78
2021/08/16 06:45:53;;;;;;;1.05;0.47;;;;;22.90;100737.00;;;;5071194;28;20203;-78
2021/08/16 06:48:21;;;;;;;1.45;0.73;;;;;22.90;100750.00;;;;5070276;28;20211;-78
2021/08/16 06:50:48;;;;;;;0.90;0.73;;;;;22.90;100748.00;;;;5071103;28;20229;-78
2021/08/16 06:53:16;;;;;;;1.60;0.68;;;;;22.90;100753.00;;;;5070638;28;20580;-78
2021/08/16 06:55:47;;;;;;;0.50;0.50;;;;;22.90;100758.00;;;;5070078;28;20870;-78
2021/08/16 06:58:14;;;;;;;2.40;0.60;;;;;22.90;100755.00;;;;5070651;28;20194;-78
2021/08/16 07:00:42;;;;;;;2.33;1.00;;;;;23.00;100757.00;;;;5070852;28;20576;-78
2021/08/16 07:03:10;;;;;;;1.90;0.90;;;;;23.00;100764.00;;;;5068928;28;20211;-79
2021/08/16 07:05:38;;;;;;;2.15;0.75;;;;;23.00;100764.00;;;;5050255;28;20254;-79
2021/08/16 07:08:05;;;;;;;3.10;0.70;;;;;23.00;100766.00;;;;5050466;28;20690;-78
2021/08/16 07:10:32;;;;;;;1.52;0.88;;;;;23.10;100761.00;;;;5050734;28;20230;-79
2021/08/16 07:13:01;;;;;;;3.05;1.13;;;;;23.10;100766.00;;;;5050416;28;20203;-79
2021/08/16 07:15:29;;;;;;;1.00;0.90;;;;;23.10;100768.00;;;;5050433;28;20206;-78
2021/08/16 07:17:57;;;;;;;3.55;0.90;;;;;23.10;100773.00;;;;5050955;28;20200;-78
2021/08/16 07:20:24;;;;;;;3.38;1.20;;;;;23.10;100776.00;;;;5052696;28;20246;-79
2021/08/16 07:22:51;;;;;;;2.72;1.25;;;;;23.10;100775.00;;;;5070196;28;20214;-78
2021/08/16 07:25:19;;;;;;;4.05;1.73;;;;;23.10;100774.00;;;;5070116;28;20326;-78
2021/08/16 07:27:46;;;;;;;1.67;0.95;;;;;23.10;100778.00;;;;5070458;28;20203;-78
2021/08/16 07:30:15;;;;;;;2.70;1.20;;;;;23.10;100786.00;;;;5069330;28;20701;-78
2021/08/16 07:32:42;;;;;;;1.30;0.88;;;;;23.10;100792.00;;;;5069776;28;20211;-78
2021/08/16 07:35:10;;;;;;;4.47;1.10;;;;;23.10;100795.00;;;;5070064;28;20238;-78
2021/08/16 07:37:38;;;;;;;2.15;1.10;;;;;23.00;100806.00;;;;5068915;28;20215;-78
2021/08/16 07:40:06;;;;;;;2.08;0.90;;;;;23.00;100809.00;;;;5069969;28;20230;-78
2021/08/16 07:42:33;;;;;;;1.35;0.80;;;;;22.90;100814.00;;;;5069572;28;20206;-78
2021/08/16 07:45:01;;;;;;;1.63;1.00;;;;;22.90;100817.00;;;;5070548;28;20214;-78
2021/08/16 07:47:29;;;;;;;3.30;1.13;;;;;22.90;100817.00;;;;5069916;28;20198;-78
2021/08/16 07:49:56;;;;;;;2.13;0.80;;;;;22.80;100827.00;;;;5070128;28;20233;-78
2021/08/16 07:52:24;;;;;;;4.63;1.40;;;;;22.80;100828.00;;;;5068622;28;20198;-77
2021/08/16 07:54:54;;;;;;;2.35;1.30;;;;;22.70;100823.00;;;;5060944;28;20693;-78
2021/08/16 07:57:21;;;;;;;1.52;1.20;;;;;22.70;100832.00;;;;5049758;28;20203;-78
2021/08/16 07:59:49;;;;;;;2.78;0.98;;;;;22.70;100833.00;;;;5049894;28;20191;-78
2021/08/16 08:02:16;;;;;;;4.03;1.35;;;;;22.60;100832.00;;;;5049557;28;20196;-78
2021/08/16 08:04:44;;;;;;;3.50;1.30;;;;;22.60;100843.00;;;;5048895;28;20192;-78
2021/08/16 08:07:12;;;;;;;1.85;1.17;;;;;22.60;100846.00;;;;5049725;28;20196;-77
2021/08/16 08:09:39;;;;;;;2.50;1.45;;;;;22.60;100844.00;;;;5049269;28;20270;-78
2021/08/16 08:12:06;;;;;;;3.08;1.08;;;;;22.60;100847.00;;;;5050108;28;20207;-78
2021/08/16 08:14:34;;;;;;;3.85;1.35;;;;;22.60;100847.00;;;;5049391;28;20200;-78
2021/08/16 08:17:01;;;;;;;2.72;1.38;;;;;22.60;100844.00;;;;5049338;28;20238;-77
2021/08/16 08:19:28;;;;;;;2.35;1.27;;;;;22.60;100846.00;;;;5048871;28;20203;-78
2021/08/16 08:21:57;;;;;;;2.88;1.25;;;;;22.60;100849.00;;;;5048979;28;20682;-78
2021/08/16 08:24:24;;;;;;;1.95;1.20;;;;;22.70;100848.00;;;;5048993;28;20490;-78
2021/08/16 08:26:51;;;;;;;4.25;1.83;;;;;22.70;100838.00;;;;5049299;28;20207;-78
2021/08/16 08:29:18;;;;;;;2.05;1.08;;;;;22.80;100848.00;;;;5048971;28;20208;-79
2021/08/16 08:31:46;;;;;;;6.57;1.38;;;;;22.80;100855.00;;;;5049053;28;20208;-79
2021/08/16 08:34:13;;;;;;;3.40;1.52;;;;;22.80;100850.00;;;;5048435;28;20587;-79
2021/08/16 08:36:40;;;;;;;2.17;1.20;;;;;22.90;100855.00;;;;5048225;28;20228;-78
2021/08/16 08:39:09;;;;;;;3.05;1.52;;;;;22.90;100848.00;;;;5048729;28;20223;-79
2021/08/16 08:41:37;;;;;;;3.60;1.55;;;;;23.00;100854.00;;;;5048960;28;20212;-79
2021/08/16 08:44:10;;;;;;;3.40;1.20;;;;;23.00;100857.00;;;;5049018;28;20204;-79
2021/08/16 08:46:39;;;;;;;2.15;1.17;;;;;23.00;100857.00;;;;5049581;28;20326;-78
2021/08/16 08:49:08;;;;;;;3.83;1.30;;;;;23.10;100861.00;;;;5048667;28;20956;-79
2021/08/16 08:51:36;;;;;;;4.03;1.30;;;;;23.10;100863.00;;;;5058203;28;20704;-79
2021/08/16 08:54:04;;;;;;;2.08;1.10;;;;;23.10;100864.00;;;;5051672;28;20203;-78
2021/08/16 08:56:32;;;;;;;4.43;1.40;;;;;23.10;100862.00;;;;5048846;28;20210;-79
2021/08/16 08:59:00;;;;;;;5.28;1.42;;;;;23.10;100865.00;;;;5048993;28;20249;-79
2021/08/16 09:01:27;;;;;;;3.38;1.40;;;;;23.10;100872.00;;;;5048834;28;20204;-79
2021/08/16 09:03:56;;;;;;;3.30;1.15;;;;;23.10;100870.00;;;;5049323;28;20207;-79
2021/08/16 09:06:30;;;;;;;2.63;1.30;;;;;23.10;100876.00;;;;5048784;28;20211;-79
2021/08/16 09:08:57;;;;;;;3.45;1.40;;;;;23.10;100885.00;;;;5049280;28;20203;-78
2021/08/16 09:11:27;;;;;;;2.60;1.40;;;;;23.10;100888.00;;;;5048546;28;20231;-79
2021/08/16 09:13:58;;;;;;;4.78;1.70;;;;;23.10;100882.00;;;;5048231;28;20203;-78
2021/08/16 09:16:27;;;;;;;3.25;1.20;;;;;23.20;100895.00;;;;5048458;28;20215;-79
2021/08/16 09:18:54;;;;;;;3.70;1.73;;;;;23.10;100899.00;;;;5048923;28;20277;-79
2021/08/16 09:21:27;;;;;;;1.90;1.20;;;;;23.10;100902.00;;;;5067480;28;20207;-78
2021/08/16 09:23:57;;;;;;;3.45;1.70;;;;;23.10;100904.00;;;;5068548;28;20207;-79
2021/08/16 09:26:26;;;;;;;4.32;1.95;;;;;23.10;100908.00;;;;5068093;28;20210;-79
2021/08/16 09:28:55;;;;;;;2.58;1.48;;;;;23.10;100911.00;;;;5068442;28;20672;-78
2021/08/16 09:31:24;;;;;;;5.60;2.25;;;;;23.00;100911.00;;;;5068963;28;20233;-79
2021/08/16 09:33:56;;;;;;;3.60;2.10;;;;;23.00;100910.00;;;;5069355;28;20210;-79
2021/08/16 09:36:34;;;;;;;6.25;2.63;;;;;23.00;100907.00;;;;5067259;28;20230;-77
2021/08/16 09:39:01;;;;;;;3.72;2.30;;;;;22.90;100903.00;;;;5068220;28;20310;-79
2021/08/16 09:41:29;;;;;;;5.05;2.13;;;;;22.90;100904.00;;;;5068484;28;20203;-79
2021/08/16 09:44:09;;;;;;;14.90;2.80;;;;;22.90;100908.00;;;;5068455;28;20665;-79
2021/08/16 09:46:37;;;;;;;8.68;2.47;;;;;23.10;100910.00;;;;5069389;28;20252;-79
2021/08/16 09:49:05;;;;;;;5.78;2.03;;;;;23.10;100913.00;;;;5072094;28;20669;-77
2021/08/16 09:51:33;;;;;;;3.78;2.25;;;;;23.10;100910.00;;;;5071727;28;20222;-78
2021/08/16 09:54:01;;;;;;;5.30;2.58;;;;;23.10;100922.00;;;;5063808;28;20203;-78
2021/08/16 09:56:30;;;;;;;6.15;2.70;;;;;23.10;100930.00;;;;5051584;28;20240;-77
2021/08/16 09:58:57;;;;;;;6.03;2.85;;;;;23.10;100926.00;;;;5052165;28;20559;-78
2021/08/16 10:01:26;;;;;;;6.82;2.70;;;;;23.20;100935.00;;;;5051054;28;20624;-79
2021/08/16 10:03:53;;;;;;;7.57;3.05;;;;;23.20;100925.00;;;;5052016;28;20298;-78
2021/08/16 10:06:21;;;;;;;5.60;2.70;;;;;23.30;100939.00;;;;5051360;28;20196;-78
2021/08/16 10:08:52;;;;;;;5.43;2.78;;;;;23.40;100941.00;;;;5050970;28;20200;-77
2021/08/16 10:11:21;;;;;;;4.35;2.45;;;;;23.50;100947.00;;;;5051903;28;20231;-76
2021/08/16 10:13:52;;;;;;;6.65;2.90;;;;;23.60;100930.00;;;;5051990;28;20192;-78
2021/08/16 10:16:22;;;;;;;5.47;2.78;;;;;23.70;100937.00;;;;5051029;28;20240;-79
2021/08/16 10:18:54;;;;;;;4.30;3.10;;;;;23.80;100948.00;;;;5052026;28;20200;-78
2021/08/16 10:21:24;;;;;;;6.03;3.03;;;;;23.90;100952.00;;;;5051284;28;20200;-78
2021/08/16 10:23:53;;;;;;;4.63;2.28;;;;;23.90;100941.00;;;;5051448;28;20210;-77
2021/08/16 10:26:28;;;;;;;3.92;2.40;;;;;23.90;100960.00;;;;5050813;28;20688;-77
2021/08/16 10:29:00;;;;;;;3.40;1.83;;;;;24.00;100966.00;;;;5051831;28;20261;-77
2021/08/16 10:31:29;;;;;;;4.53;2.00;;;;;24.00;100962.00;;;;5051040;28;20234;-77
2021/08/16 10:33:58;;;;;;;3.05;1.70;;;;;23.90;100963.00;;;;5051580;28;20763;-77
2021/08/16 10:36:25;;;;;;;7.82;2.40;;;;;23.90;100965.00;;;;5050289;28;20239;-77
2021/08/16 10:38:55;;;;;;;2.67;1.90;;;;;23.90;100977.00;;;;5051313;28;20218;-77
2021/08/16 10:41:27;;;;;;;3.05;2.10;;;;;23.90;100978.00;;;;5050693;28;20188;-76
2021/08/16 10:43:56;;;;;;;5.40;1.85;;;;;23.90;100989.00;;;;5051347;28;20195;-76
2021/08/16 10:46:25;;;;;;;5.03;2.00;;;;;23.90;100990.00;;;;5070177;28;20210;-77
2021/08/16 10:49:04;;;;;;;2.72;1.48;;;;;23.90;100989.00;;;;5070953;28;20199;-77
2021/08/16 10:51:43;;;;;;;4.75;2.22;;;;;23.90;100988.00;;;;5071057;28;20218;-77
2021/08/16 10:54:22;;;;;;;2.92;1.92;;;;;24.00;100997.00;;;;5052868;28;20199;-77
2021/08/16 10:56:51;;;;;;;2.80;1.60;;;;;24.10;101000.00;;;;5050519;28;20246;-77
2021/08/16 10:59:20;;;;;;;4.13;1.50;;;;;24.10;101009.00;;;;5050959;28;20187;-78
2021/08/16 11:01:48;;;;;;;2.97;2.00;;;;;24.10;101012.00;;;;5050747;28;20692;-76
2021/08/16 11:04:26;;;;;;;2.70;1.70;;;;;24.10;101017.00;;;;5050955;28;20188;-77
2021/08/16 11:06:54;;;;;;;3.72;1.85;;;;;24.10;101025.00;;;;5050621;28;20597;-77
2021/08/16 11:09:25;;;;;;;2.22;1.65;;;;;24.00;101028.00;;;;5049872;28;20630;-77
2021/08/16 11:11:54;;;;;;;3.78;1.75;;;;;24.00;101032.00;;;;5050688;28;20258;-77
2021/08/16 11:14:25;;;;;;;3.00;1.70;;;;;24.00;101027.00;;;;5050580;28;20195;-76
2021/08/16 11:16:54;;;;;;;2.35;1.40;;;;;24.00;101026.00;;;;5050751;28;20539;-77
2021/08/16 11:19:24;;;;;;;2.90;2.10;;;;;23.90;101032.00;;;;5050587;28;20207;-77
2021/08/16 11:21:57;;;;;;;6.10;1.98;;;;;23.90;101034.00;;;;5050251;28;20661;-78
2021/08/16 11:24:29;;;;;;;3.70;2.25;;;;;23.80;101038.00;;;;5049683;28;20232;-77
2021/08/16 11:26:57;;;;;;;7.80;2.25;;;;;23.90;101045.00;;;;5050215;28;20245;-77
2021/08/16 11:29:25;;;;;;;2.90;2.13;;;;;23.80;101068.00;;;;5049921;28;20601;-77
2021/08/16 11:31:58;;;;;;;5.65;1.90;;;;;23.70;101077.00;;;;5049891;28;20712;-78
2021/08/16 11:34:27;;;;;;;4.50;1.90;;;;;23.50;101085.00;;;;5049888;28;20207;-78
2021/08/16 11:36:56;;;;;;;3.35;1.67;;;;;23.50;101090.00;;;;5051159;28;20753;-78
2021/08/16 11:39:30;;;;;;;3.05;1.38;;;;;23.30;101100.00;;;;5049527;28;20230;-78
2021/08/16 11:41:59;;;;;;;4.57;1.77;;;;;23.20;101109.00;;;;5049683;28;20202;-78
2021/08/16 11:44:27;;;;;;;2.55;1.33;;;;;23.10;101093.00;;;;5049833;28;20203;-78
2021/08/16 11:46:57;;;;;;;4.70;1.20;;;;;23.00;101094.00;;;;5049701;28;20207;-77
2021/08/16 11:49:31;;;;;;;2.17;1.30;;;;;22.80;101089.00;;;;5048775;28;20258;-77
2021/08/16 11:51:58;;;;;;;2.42;1.02;;;;;22.80;101089.00;;;;5049948;28;20720;-78
2021/08/16 11:54:27;;;;;;;2.90;1.27;;;;;22.70;101101.00;;;;5068754;28;20253;-78
2021/08/16 11:56:57;;;;;;;4.97;1.38;;;;;22.70;101108.00;;;;5069748;28;20202;-78
2021/08/16 11:59:24;;;;;;;4.10;1.52;;;;;22.60;101112.00;;;;5069742;28;20627;-77
2021/08/16 12:01:52;;;;;;;2.40;1.40;;;;;22.60;101113.00;;;;5069712;28;20205;-78
2021/08/16 12:04:21;;;;;;;3.78;1.27;;;;;22.60;101109.00;;;;5069244;28;20210;-78
2021/08/16 12:06:52;;;;;;;4.80;1.33;;;;;22.50;101108.00;;;;5068802;28;20199;-78
2021/08/16 12:09:20;;;;;;;2.42;1.33;;;;;22.50;101105.00;;;;5067659;28;20227;-78
2021/08/16 12:11:59;;;;;;;4.88;1.27;;;;;22.40;101104.00;;;;5069316;28;20222;-77
2021/08/16 12:14:30;;;;;;;3.22;1.40;;;;;22.40;101110.00;;;;5069377;28;20202;-78